Time;durP1;ratioP1;P1;durP2;ratioP2;P2;SDS_P1;SDS_P2;PMS_P1;PMS_P2;Temp;Humidity;BMP_temperature;BMP_pressure;BME280_temperature;BME280_humidity;BME280_pressure;Samples;Min_cycle;Max_cycle;Signal;HPM_P1;HPM_P2
2022/09/28 00:01:42;;;;;;;3.60;1.40;;;;;;;8.44;100.00;99711.63;5035322;28;20115;-74
2022/09/28 00:04:07;;;;;;;5.60;1.58;;;;;;;8.49;100.00;99720.03;5042684;28;20033;-74
2022/09/28 00:06:33;;;;;;;7.93;1.58;;;;;;;8.54;100.00;99722.94;5036564;28;20553;-74
2022/09/28 00:09:00;;;;;;;4.90;1.60;;;;;;;8.50;100.00;99715.41;5047726;28;20043;-74
2022/09/28 00:11:26;;;;;;;6.03;1.40;;;;;;;8.47;100.00;99726.75;5043880;28;20056;-74
2022/09/28 00:13:55;;;;;;;2.42;1.52;;;;;;;8.51;100.00;99726.13;5018926;28;20443;-73
2022/09/28 00:16:27;;;;;;;2.72;1.20;;;;;;;8.49;100.00;99717.28;5039193;28;20496;-73
2022/09/28 00:18:53;;;;;;;5.10;1.30;;;;;;;8.47;100.00;99718.56;5047221;28;20377;-73
2022/09/28 00:21:24;;;;;;;2.67;1.48;;;;;;;8.45;100.00;99723.41;5048912;28;20037;-73
2022/09/28 00:26:50;;;;;;;5.47;1.38;;;;;;;8.35;100.00;99728.44;5048766;28;20036;-74
2022/09/28 00:29:31;;;;;;;8.43;2.45;;;;;;;8.34;100.00;99727.56;5049167;28;20029;-74
2022/09/28 00:32:01;;;;;;;4.97;1.50;;;;;;;8.28;100.00;99722.97;5044948;28;20029;-73
2022/09/28 00:34:26;;;;;;;2.47;1.33;;;;;;;8.22;100.00;99718.34;5043886;28;20044;-74
2022/09/28 00:36:52;;;;;;;2.90;1.38;;;;;;;8.18;100.00;99721.69;5042748;28;20036;-74
2022/09/28 00:39:17;;;;;;;4.22;1.70;;;;;;;8.11;100.00;99716.22;5049733;28;20106;-74
2022/09/28 00:41:44;;;;;;;6.60;1.45;;;;;;;8.07;100.00;99717.69;5045919;28;20041;-73
2022/09/28 00:44:46;;;;;;;3.22;1.10;;;;;;;8.01;100.00;99717.69;5049722;28;20025;-74
2022/09/28 00:47:25;;;;;;;3.33;1.30;;;;;;;7.87;100.00;99716.84;5010511;28;20049;-73
2022/09/28 00:50:15;;;;;;;1.45;1.10;;;;;;;7.84;100.00;99725.44;5046134;28;20037;-74
2022/09/28 00:52:44;;;;;;;4.38;1.27;;;;;;;7.76;100.00;99717.47;5048026;28;20036;-74
2022/09/28 00:55:14;;;;;;;4.22;1.13;;;;;;;7.78;100.00;99725.41;5049767;28;20369;-74
2022/09/28 00:57:45;;;;;;;5.47;1.17;;;;;;;7.77;100.00;99727.31;5046365;28;20032;-74
2022/09/28 01:00:11;;;;;;;5.88;1.35;;;;;;;7.75;100.00;99737.56;5049394;28;20029;-74
2022/09/28 01:02:36;;;;;;;1.70;0.90;;;;;;;7.73;100.00;99736.09;5045380;28;20029;-73
2022/09/28 01:05:04;;;;;;;3.55;1.42;;;;;;;7.71;100.00;99738.19;5046170;28;20376;-73
2022/09/28 01:07:31;;;;;;;2.03;1.00;;;;;;;7.73;100.00;99739.66;5047751;28;20465;-74
2022/09/28 01:09:57;;;;;;;3.58;1.20;;;;;;;7.79;100.00;99738.84;5047188;28;20118;-74
2022/09/28 01:12:22;;;;;;;2.67;1.38;;;;;;;7.83;100.00;99741.97;5040711;28;20033;-73
2022/09/28 01:14:49;;;;;;;2.03;1.10;;;;;;;7.90;100.00;99734.69;5049476;28;20017;-74
2022/09/28 01:17:34;;;;;;;;;;;;;;;7.94;100.00;99727.75;5051294;28;20373;-74
2022/09/28 01:20:33;;;;;;;10.63;0.90;;;;;;;8.01;100.00;99732.16;5050168;28;19927;-74
2022/09/28 01:23:27;;;;;;;2.13;0.68;;;;;;;8.09;99.57;99733.84;5052005;28;20107;-73
2022/09/28 01:26:07;;;;;;;3.15;1.20;;;;;;;8.12;99.61;99736.16;5051728;28;20029;-73
2022/09/28 01:28:33;;;;;;;2.20;0.70;;;;;;;8.19;99.80;99739.72;5052127;28;20037;-73
2022/09/28 01:31:11;;;;;;;6.20;1.02;;;;;;;8.16;99.76;99712.88;5033170;28;20078;-73
2022/09/28 01:34:16;;;;;;;7.90;1.13;;;;;;;8.21;100.00;99732.19;5030230;28;20028;-73
2022/09/28 01:36:50;;;;;;;1.10;1.00;;;;;;;8.30;100.00;99733.69;5037515;28;20567;-73
2022/09/28 01:39:24;;;;;;;2.85;1.15;;;;;;;8.30;99.76;99736.41;5051867;28;20079;-73
2022/09/28 01:41:53;;;;;;;3.50;1.02;;;;;;;8.33;100.00;99734.09;5048443;28;20059;-73
2022/09/28 01:44:21;;;;;;;2.55;1.08;;;;;;;8.33;100.00;99731.34;5051868;28;20025;-73
2022/09/28 01:46:48;;;;;;;3.55;0.88;;;;;;;8.40;100.00;99732.22;5050952;28;20084;-74
2022/09/28 01:49:22;;;;;;;2.25;0.80;;;;;;;8.35;100.00;99733.88;5049711;28;20021;-75
2022/09/28 01:52:00;;;;;;;5.93;1.05;;;;;;;8.39;100.00;99738.69;5049468;28;20025;-74
2022/09/28 01:54:41;;;;;;;8.73;0.93;;;;;;;8.45;100.00;99728.84;5051367;28;20120;-72
2022/09/28 01:57:21;;;;;;;4.07;1.23;;;;;;;8.48;100.00;99729.25;5047137;28;20025;-74
2022/09/28 02:00:01;;;;;;;6.35;0.88;;;;;;;8.47;100.00;99727.59;5051741;28;20025;-74
2022/09/28 02:02:32;;;;;;;4.53;1.08;;;;;;;8.47;100.00;99727.59;5047329;28;20036;-75
2022/09/28 02:05:09;;;;;;;11.93;1.63;;;;;;;8.45;100.00;99734.31;5049640;28;20033;-74
2022/09/28 02:07:44;;;;;;;3.00;1.02;;;;;;;8.50;100.00;99726.31;5044111;28;20469;-74
2022/09/28 02:10:18;;;;;;;3.50;0.98;;;;;;;8.45;100.00;99715.22;5048713;28;20040;-74
2022/09/28 02:12:50;;;;;;;3.83;1.00;;;;;;;8.43;100.00;99715.41;5044726;28;20025;-75
2022/09/28 02:15:53;;;;;;;4.50;0.90;;;;;;;8.41;100.00;99714.78;5049607;28;20344;-75
2022/09/28 02:18:19;;;;;;;4.25;0.85;;;;;;;8.39;100.00;99710.59;4968648;28;20085;-74
2022/09/28 02:20:58;;;;;;;4.63;0.88;;;;;;;8.40;100.00;99709.53;5032923;28;20117;-74
2022/09/28 02:23:27;;;;;;;4.47;1.00;;;;;;;8.41;100.00;99717.53;5049404;28;20025;-75
2022/09/28 02:26:00;;;;;;;12.73;1.35;;;;;;;8.39;100.00;99710.59;5049879;28;20025;-75
2022/09/28 02:28:26;;;;;;;4.30;1.13;;;;;;;8.32;100.00;99721.50;5051046;28;20445;-75
2022/09/28 02:30:51;;;;;;;3.63;1.13;;;;;;;8.30;100.00;99720.88;5051459;28;20102;-74
2022/09/28 02:33:23;;;;;;;4.38;1.05;;;;;;;8.30;100.00;99717.31;5048138;28;20107;-74
2022/09/28 02:35:49;;;;;;;4.75;1.00;;;;;;;8.21;100.00;99719.41;5049253;28;20034;-74
2022/09/28 02:38:14;;;;;;;2.88;1.17;;;;;;;8.16;100.00;99726.53;5050886;28;20029;-74
2022/09/28 02:40:44;;;;;;;3.15;0.90;;;;;;;8.04;100.00;99720.00;5051185;28;20033;-74
2022/09/28 02:43:56;;;;;;;5.00;1.30;;;;;;;7.98;100.00;99721.69;5046860;28;20056;-74
2022/09/28 02:46:55;;;;;;;5.93;1.13;;;;;;;8.06;100.00;99723.38;4949247;29;20071;-74
2022/09/28 02:49:42;;;;;;;3.95;1.17;;;;;;;7.90;100.00;99726.50;4948785;28;20118;-74
2022/09/28 02:52:39;;;;;;;6.18;1.02;;;;;;;7.91;100.00;99722.72;5035763;28;20123;-74
2022/09/28 02:55:26;;;;;;;5.53;0.98;;;;;;;7.95;100.00;99732.16;5050838;28;20139;-73
2022/09/28 02:58:27;;;;;;;6.72;1.08;;;;;;;8.05;100.00;99730.69;5047980;28;20499;-74
2022/09/28 03:01:13;;;;;;;6.35;1.00;;;;;;;8.11;100.00;99731.78;5050343;28;20029;-73
2022/09/28 03:03:49;;;;;;;2.08;0.80;;;;;;;8.11;100.00;99739.94;5048321;28;20029;-74
2022/09/28 03:06:25;;;;;;;5.85;1.23;;;;;;;8.09;100.00;99729.25;5046960;28;20029;-75
2022/09/28 03:08:57;;;;;;;6.82;1.00;;;;;;;8.12;100.00;99739.72;5049674;28;20025;-75
2022/09/28 03:11:29;;;;;;;3.13;1.25;;;;;;;8.15;100.00;99739.31;5047054;28;20033;-74
2022/09/28 03:13:55;;;;;;;2.80;0.80;;;;;;;8.23;100.00;99736.41;5048226;28;20045;-75
2022/09/28 03:16:20;;;;;;;3.75;1.27;;;;;;;8.23;100.00;99738.31;5028425;28;20033;-74
2022/09/28 03:18:46;;;;;;;1.73;0.60;;;;;;;8.17;100.00;99739.09;5050030;28;20032;-75
2022/09/28 03:21:13;;;;;;;4.40;0.70;;;;;;;8.17;100.00;99736.38;5049438;28;20048;-75
2022/09/28 03:23:39;;;;;;;3.45;0.85;;;;;;;8.25;100.00;99747.94;5028640;28;20041;-75
2022/09/28 03:26:10;;;;;;;5.97;1.08;;;;;;;8.28;100.00;99750.25;5045633;28;20503;-74
2022/09/28 03:28:35;;;;;;;3.58;0.70;;;;;;;8.24;100.00;99738.09;5049708;28;20068;-75
2022/09/28 03:31:01;;;;;;;2.78;0.90;;;;;;;8.23;100.00;99747.31;5049498;28;20061;-75
2022/09/28 03:33:26;;;;;;;2.33;1.67;;;;;;;8.25;100.00;99744.38;5049730;28;20629;-74
2022/09/28 03:35:52;;;;;;;2.90;0.60;;;;;;;8.23;100.00;99735.56;5047588;28;20073;-75
2022/09/28 03:38:17;;;;;;;6.60;1.00;;;;;;;8.26;100.00;99749.63;5049900;28;20029;-74
2022/09/28 03:40:43;;;;;;;8.70;0.70;;;;;;;8.24;100.00;99739.97;5049856;28;20040;-75
2022/09/28 03:43:09;;;;;;;0.70;0.70;;;;;;;8.23;100.00;99736.41;5045690;28;20028;-75
2022/09/28 03:45:34;;;;;;;1.03;0.70;;;;;;;8.22;100.00;99732.00;5049031;28;20024;-75
2022/09/28 03:48:00;;;;;;;3.80;0.90;;;;;;;8.19;100.00;99729.66;5044795;28;20033;-75
2022/09/28 03:50:25;;;;;;;1.23;0.68;;;;;;;8.17;100.00;99731.75;5048570;28;20032;-74
2022/09/28 03:52:50;;;;;;;1.37;0.70;;;;;;;8.10;100.00;99736.38;5050388;28;20032;-75
2022/09/28 03:55:16;;;;;;;2.17;0.77;;;;;;;8.12;100.00;99733.44;5050042;28;20033;-72
2022/09/28 03:57:41;;;;;;;3.03;1.30;;;;;;;8.14;100.00;99728.59;5047353;28;20108;-72
2022/09/28 04:00:08;;;;;;;1.33;0.80;;;;;;;8.17;100.00;99734.47;5049492;28;20542;-75
2022/09/28 04:02:33;;;;;;;4.55;0.98;;;;;;;8.24;100.00;99735.38;5047235;28;20037;-72
2022/09/28 04:04:59;;;;;;;7.70;1.00;;;;;;;8.24;100.00;99737.25;5049045;28;20036;-73
2022/09/28 04:07:24;;;;;;;1.52;0.98;;;;;;;8.18;100.00;99738.06;5029818;28;20029;-73
2022/09/28 04:09:49;;;;;;;4.55;1.20;;;;;;;8.15;100.00;99733.84;5047840;28;20063;-73
2022/09/28 04:12:15;;;;;;;4.78;1.00;;;;;;;8.17;100.00;99744.56;5046984;28;20029;-73
2022/09/28 04:14:40;;;;;;;1.40;0.80;;;;;;;8.16;100.00;99734.72;5049524;28;20036;-73
2022/09/28 04:17:06;;;;;;;6.10;0.93;;;;;;;8.14;100.00;99731.34;5046898;28;20035;-73
2022/09/28 04:19:31;;;;;;;1.00;0.85;;;;;;;8.06;100.00;99729.66;5024661;28;20068;-73
2022/09/28 04:21:57;;;;;;;2.72;0.70;;;;;;;8.14;100.00;99736.78;5030066;28;20451;-74
2022/09/28 04:24:22;;;;;;;4.97;0.98;;;;;;;8.13;100.00;99740.56;5048147;28;20040;-73
2022/09/28 04:26:48;;;;;;;3.03;1.05;;;;;;;8.13;100.00;99727.78;5047720;28;20425;-74
2022/09/28 04:29:16;;;;;;;4.30;0.90;;;;;;;8.12;100.00;99738.91;5048383;28;20056;-73
2022/09/28 04:31:46;;;;;;;5.60;1.15;;;;;;;8.13;100.00;99740.56;5042869;28;20067;-73
2022/09/28 04:34:16;;;;;;;5.88;0.90;;;;;;;8.22;100.00;99729.25;5049702;28;20079;-73
2022/09/28 04:36:41;;;;;;;6.45;1.13;;;;;;;8.27;100.00;99732.22;5027974;28;20033;-73
2022/09/28 04:39:06;;;;;;;2.90;0.73;;;;;;;8.27;100.00;99739.56;5049797;28;20373;-73
2022/09/28 04:41:32;;;;;;;6.03;1.95;;;;;;;8.26;100.00;99746.03;5046714;28;20040;-74
2022/09/28 04:43:58;;;;;;;5.33;1.03;;;;;;;8.29;100.00;99751.09;5049571;28;20052;-74
2022/09/28 04:46:23;;;;;;;8.18;1.08;;;;;;;8.28;100.00;99749.44;5046268;28;20428;-74
2022/09/28 04:48:48;;;;;;;3.27;1.10;;;;;;;8.27;100.00;99748.56;5055112;28;20095;-74
2022/09/28 04:51:14;;;;;;;4.67;1.07;;;;;;;8.34;100.00;99756.78;5036206;28;20071;-74
2022/09/28 04:53:39;;;;;;;4.05;1.05;;;;;;;8.36;100.00;99738.28;5055259;28;20029;-74
2022/09/28 04:56:07;;;;;;;2.83;1.08;;;;;;;8.35;100.00;99747.53;5054967;28;20021;-73
2022/09/28 04:58:34;;;;;;;5.78;0.90;;;;;;;8.35;100.00;99740.19;5052961;28;20103;-73
2022/09/28 05:01:01;;;;;;;9.27;0.98;;;;;;;8.44;100.00;99746.28;5055330;28;20025;-74
2022/09/28 05:03:27;;;;;;;0.98;0.90;;;;;;;8.48;100.00;99748.38;5055220;28;20025;-74
2022/09/28 05:05:52;;;;;;;4.68;1.30;;;;;;;8.39;100.00;99741.44;5052596;28;20040;-73
2022/09/28 05:08:18;;;;;;;6.13;1.10;;;;;;;8.52;100.00;99757.81;5054089;28;20033;-72
2022/09/28 05:10:44;;;;;;;6.13;0.98;;;;;;;8.44;100.00;99755.28;5052252;28;20485;-74
2022/09/28 05:13:11;;;;;;;6.97;1.07;;;;;;;8.50;100.00;99748.97;5050268;28;20534;-74
2022/09/28 05:15:37;;;;;;;;;;;;;;;8.54;100.00;99757.63;5048873;28;20086;-73
2022/09/28 05:18:03;;;;;;;1.27;1.13;;;;;;;8.56;100.00;99752.78;5042184;28;19952;-73
2022/09/28 05:20:28;;;;;;;2.30;1.00;;;;;;;8.54;100.00;99750.25;5053049;28;20095;-74
2022/09/28 05:22:54;;;;;;;3.53;0.95;;;;;;;8.58;100.00;99756.13;5053344;28;20020;-73
2022/09/28 05:25:19;;;;;;;6.23;1.03;;;;;;;8.62;100.00;99746.47;5054628;28;20029;-74
2022/09/28 05:27:44;;;;;;;5.82;0.82;;;;;;;8.61;100.00;99747.53;5052586;28;20499;-74
2022/09/28 05:30:10;;;;;;;1.90;1.00;;;;;;;8.63;100.00;99739.94;5053906;28;20044;-74
2022/09/28 05:32:45;;;;;;;1.80;1.07;;;;;;;8.60;100.00;99745.84;5052236;28;20128;-74
2022/09/28 05:35:11;;;;;;;3.70;0.90;;;;;;;8.51;100.00;99752.56;5053764;28;20086;-74
2022/09/28 05:37:37;;;;;;;2.03;1.00;;;;;;;8.55;100.00;99756.56;5053321;28;20033;-74
2022/09/28 05:40:03;;;;;;;3.40;1.02;;;;;;;8.58;100.00;99756.13;5054721;28;20473;-73
2022/09/28 05:42:29;;;;;;;6.22;1.50;;;;;;;8.51;100.00;99760.75;5053723;28;20037;-73
2022/09/28 05:44:54;;;;;;;4.57;0.90;;;;;;;8.47;100.00;99754.88;5054147;28;20097;-73
2022/09/28 05:47:20;;;;;;;5.93;1.30;;;;;;;8.41;100.00;99752.16;5053655;28;20036;-74
2022/09/28 05:49:45;;;;;;;1.95;1.05;;;;;;;8.34;100.00;99757.59;5035242;28;20502;-73
2022/09/28 05:52:10;;;;;;;1.15;0.80;;;;;;;8.30;100.00;99742.72;5026059;28;20492;-74
2022/09/28 05:54:35;;;;;;;5.35;1.02;;;;;;;8.31;100.00;99754.44;5051410;28;20028;-73
2022/09/28 05:57:01;;;;;;;3.88;1.13;;;;;;;8.33;100.00;99746.91;5050230;28;20396;-73
2022/09/28 05:59:26;;;;;;;1.53;0.90;;;;;;;8.32;100.00;99750.69;5031892;28;20064;-74
2022/09/28 06:01:51;;;;;;;2.83;0.80;;;;;;;8.36;100.00;99758.25;5051532;28;20029;-73
2022/09/28 06:04:17;;;;;;;5.20;1.25;;;;;;;8.43;100.00;99755.53;5051695;28;20517;-72
2022/09/28 06:06:42;;;;;;;4.75;0.80;;;;;;;8.47;100.00;99754.03;5048573;28;20098;-72
2022/09/28 06:09:08;;;;;;;9.07;1.10;;;;;;;8.55;100.00;99759.28;5051304;28;20040;-72
2022/09/28 06:11:33;;;;;;;1.80;1.27;;;;;;;8.62;100.00;99750.03;5047578;28;20061;-75
2022/09/28 06:13:59;;;;;;;2.00;0.90;;;;;;;8.64;100.00;99752.56;5048951;28;20033;-73
2022/09/28 06:16:24;;;;;;;2.20;0.90;;;;;;;8.65;100.00;99754.25;5050736;28;20021;-73
2022/09/28 06:18:50;;;;;;;2.50;1.10;;;;;;;8.62;100.00;99763.69;5050264;28;20207;-73
2022/09/28 06:21:15;;;;;;;6.23;1.30;;;;;;;8.61;100.00;99761.16;5049928;28;20118;-73
2022/09/28 06:23:40;;;;;;;0.80;0.80;;;;;;;8.62;100.00;99760.97;5047585;28;20492;-72
2022/09/28 06:26:06;;;;;;;3.63;1.10;;;;;;;8.66;100.00;99766.84;5040856;28;20104;-72
2022/09/28 06:28:31;;;;;;;3.33;1.33;;;;;;;8.69;100.00;99760.94;5041930;28;20037;-72
2022/09/28 06:30:59;;;;;;;4.13;1.42;;;;;;;8.71;100.00;99761.59;5049707;28;20119;-73
2022/09/28 06:33:25;;;;;;;4.57;1.10;;;;;;;8.79;100.00;99764.06;5050675;28;20017;-73
2022/09/28 06:35:51;;;;;;;5.82;1.30;;;;;;;8.81;100.00;99770.19;5050650;28;20029;-73
2022/09/28 06:38:17;;;;;;;9.73;1.30;;;;;;;8.79;100.00;99769.53;5049002;28;20369;-73
2022/09/28 06:40:42;;;;;;;8.18;1.63;;;;;;;8.86;100.00;99759.47;5033350;28;20025;-73
2022/09/28 06:43:13;;;;;;;5.57;1.00;;;;;;;8.89;100.00;99759.03;5049608;28;20032;-73
2022/09/28 06:45:39;;;;;;;3.13;1.20;;;;;;;8.96;100.00;99762.59;5040284;28;20535;-73
2022/09/28 06:48:05;;;;;;;5.63;1.10;;;;;;;8.98;100.00;99755.84;5045990;28;20033;-73
2022/09/28 06:50:34;;;;;;;3.20;1.13;;;;;;;8.92;100.00;99759.44;5048496;28;20033;-75
2022/09/28 06:53:00;;;;;;;6.65;1.27;;;;;;;8.94;100.00;99761.94;5033180;28;20029;-72
2022/09/28 06:55:27;;;;;;;2.03;1.15;;;;;;;8.96;100.00;99766.16;5032550;28;20040;-75
2022/09/28 06:57:57;;;;;;;5.20;1.17;;;;;;;8.98;100.00;99780.41;5045146;28;20029;-74
2022/09/28 07:00:23;;;;;;;2.85;1.10;;;;;;;9.01;100.00;99779.16;5045440;28;20100;-72
2022/09/28 07:02:48;;;;;;;3.75;1.50;;;;;;;9.02;100.00;99791.78;5049885;28;20121;-74
2022/09/28 07:05:14;;;;;;;6.35;1.65;;;;;;;9.07;100.00;99786.53;5048936;28;20356;-75
2022/09/28 07:07:41;;;;;;;8.73;1.55;;;;;;;9.15;100.00;99791.75;5030599;28;20033;-75
2022/09/28 07:10:09;;;;;;;2.28;1.30;;;;;;;9.13;100.00;99793.84;5045750;28;20112;-74
2022/09/28 07:12:35;;;;;;;7.00;1.25;;;;;;;9.19;100.00;99793.81;5049791;28;20059;-74
2022/09/28 07:15:00;;;;;;;1.83;1.40;;;;;;;9.23;100.00;99794.25;5031272;28;20021;-74
2022/09/28 07:17:26;;;;;;;3.22;1.45;;;;;;;9.38;100.00;99786.63;5048991;28;20036;-74
2022/09/28 07:19:51;;;;;;;5.50;1.40;;;;;;;9.44;100.00;99788.50;5046375;28;20381;-74
2022/09/28 07:22:18;;;;;;;1.67;1.10;;;;;;;9.46;100.00;99791.88;5044804;28;20017;-75
2022/09/28 07:24:43;;;;;;;9.57;1.40;;;;;;;9.53;100.00;99792.66;5045919;28;20086;-75
2022/09/28 07:27:09;;;;;;;2.88;0.95;;;;;;;9.58;100.00;99792.84;5043740;28;20033;-74
2022/09/28 07:29:34;;;;;;;7.80;1.25;;;;;;;9.64;100.00;99792.00;5048923;28;20036;-74
2022/09/28 07:32:00;;;;;;;7.05;1.08;;;;;;;9.68;99.23;99795.97;5041890;28;20037;-74
2022/09/28 07:34:25;;;;;;;2.00;0.98;;;;;;;9.74;99.55;99798.69;5025266;28;20055;-74
2022/09/28 07:36:56;;;;;;;1.13;1.10;;;;;;;9.80;98.99;99806.00;5045334;28;20113;-74
2022/09/28 07:39:21;;;;;;;1.73;0.65;;;;;;;9.82;99.82;99797.59;5044324;28;20033;-74
2022/09/28 07:41:47;;;;;;;5.03;0.90;;;;;;;9.99;99.55;99802.31;5050862;28;20051;-74
2022/09/28 07:44:13;;;;;;;3.17;1.00;;;;;;;10.24;98.43;99796.97;5032360;28;20033;-74
2022/09/28 07:46:38;;;;;;;8.67;1.33;;;;;;;10.51;98.53;99796.53;5050400;28;20033;-74
2022/09/28 07:49:04;;;;;;;4.38;1.02;;;;;;;10.80;98.26;99795.03;5033185;28;20036;-75
2022/09/28 07:51:30;;;;;;;1.60;0.80;;;;;;;11.10;97.85;99809.72;5051521;28;20060;-74
2022/09/28 07:53:55;;;;;;;1.63;0.93;;;;;;;11.19;97.34;99816.56;5051170;28;20305;-75
2022/09/28 07:56:21;;;;;;;6.57;0.95;;;;;;;11.24;97.12;99819.47;5029897;28;20044;-74
2022/09/28 07:58:47;;;;;;;1.50;0.97;;;;;;;11.25;96.29;99807.44;5047930;28;20032;-74
2022/09/28 08:01:15;;;;;;;2.58;0.82;;;;;;;11.14;95.55;99821.88;5045871;28;20063;-75
2022/09/28 08:03:44;;;;;;;5.35;1.17;;;;;;;11.12;94.48;99818.53;5047036;28;20085;-75
2022/09/28 08:06:11;;;;;;;3.40;0.70;;;;;;;11.01;95.24;99820.13;5049328;28;20178;-75
2022/09/28 08:08:38;;;;;;;0.85;0.70;;;;;;;10.90;95.03;99825.50;5044521;28;20030;-74
2022/09/28 08:11:05;;;;;;;6.15;0.88;;;;;;;10.96;96.03;99827.34;5046396;28;20098;-74
2022/09/28 08:13:30;;;;;;;2.42;0.65;;;;;;;11.02;95.42;99829.19;5046111;28;20120;-74
2022/09/28 08:16:00;;;;;;;1.10;0.80;;;;;;;11.11;95.00;99825.91;5043498;28;20455;-75
2022/09/28 08:18:25;;;;;;;1.13;0.80;;;;;;;11.02;93.93;99834.66;5045133;28;20025;-74
2022/09/28 08:23:37;;;;;;;1.55;0.85;;;;;;;11.06;93.37;99833.16;5040550;28;20551;-74
2022/09/28 08:26:02;;;;;;;4.63;0.90;;;;;;;11.22;93.92;99824.34;5017007;28;20199;-75
2022/09/28 08:28:28;;;;;;;2.58;0.90;;;;;;;11.17;92.53;99827.78;5041983;28;20108;-75
2022/09/28 08:30:53;;;;;;;1.17;0.70;;;;;;;11.31;92.73;99833.97;5035101;28;20036;-74
2022/09/28 08:33:22;;;;;;;4.53;0.70;;;;;;;11.46;92.97;99839.91;5042485;28;20029;-74
2022/09/28 08:35:58;;;;;;;1.98;0.77;;;;;;;11.65;92.76;99839.72;5041133;28;20104;-74
2022/09/28 08:38:25;;;;;;;2.10;0.70;;;;;;;11.90;92.16;99843.19;5026378;28;20136;-74
2022/09/28 08:41:08;;;;;;;1.90;0.70;;;;;;;11.86;92.38;99839.22;5024987;28;20140;-74
2022/09/28 08:43:58;;;;;;;2.25;1.10;;;;;;;11.81;91.36;99846.50;5037639;28;20043;-74
2022/09/28 08:46:27;;;;;;;3.75;0.95;;;;;;;11.79;93.09;99845.91;5037478;28;20439;-74
2022/09/28 08:48:59;;;;;;;4.65;0.75;;;;;;;11.69;91.70;99849.16;5043264;28;20072;-74
2022/09/28 08:51:34;;;;;;;2.53;0.98;;;;;;;11.75;90.73;99850.16;5038547;28;20123;-75
2022/09/28 08:54:06;;;;;;;2.95;0.85;;;;;;;11.88;90.87;99847.25;5025524;28;20489;-75
2022/09/28 08:56:46;;;;;;;6.70;0.93;;;;;;;11.94;90.57;99855.41;5041497;28;20029;-75
2022/09/28 08:59:18;;;;;;;2.72;0.80;;;;;;;12.14;90.89;99858.75;5037847;28;20044;-74
2022/09/28 09:01:58;;;;;;;3.33;0.88;;;;;;;12.29;91.39;99863.81;5042469;28;20033;-75
2022/09/28 09:04:24;;;;;;;2.90;0.80;;;;;;;12.17;86.71;99857.44;5039994;28;20029;-75
2022/09/28 09:07:04;;;;;;;4.53;1.10;;;;;;;12.24;89.19;99860.91;5042024;28;20507;-75
2022/09/28 09:09:39;;;;;;;5.25;1.00;;;;;;;12.44;87.82;99865.06;5047034;28;20029;-74
2022/09/28 09:12:17;;;;;;;4.72;0.90;;;;;;;12.68;87.67;99860.47;5040512;28;20043;-75
2022/09/28 09:14:58;;;;;;;2.80;0.95;;;;;;;12.87;86.64;99862.91;5037637;28;20451;-73
2022/09/28 09:17:46;;;;;;;7.18;1.42;;;;;;;12.90;87.36;99862.44;5036927;28;20035;-73
2022/09/28 09:20:28;;;;;;;1.70;0.65;;;;;;;12.94;86.14;99871.06;5036385;28;20052;-72
2022/09/28 09:22:58;;;;;;;3.20;1.55;;;;;;;12.99;85.03;99861.06;5046806;28;20025;-73
2022/09/28 09:25:47;;;;;;;0.82;0.70;;;;;;;13.13;84.53;99862.50;5044580;28;20017;-73
2022/09/28 09:28:34;;;;;;;5.90;0.93;;;;;;;13.29;86.31;99872.81;5037836;28;20488;-73
2022/09/28 09:31:29;;;;;;;3.22;1.00;;;;;;;13.54;83.44;99878.06;5027557;28;20036;-74
2022/09/28 09:34:26;;;;;;;1.02;0.57;;;;;;;13.64;82.08;99875.53;5044798;28;20041;-74
2022/09/28 09:37:06;;;;;;;2.92;0.95;;;;;;;13.73;82.21;99885.97;5047427;28;20040;-73
2022/09/28 09:40:25;;;;;;;3.95;0.88;;;;;;;13.50;83.57;99887.91;5047301;28;20484;-73
2022/09/28 09:43:04;;;;;;;3.22;1.05;;;;;;;13.43;84.08;99881.66;5047754;28;20107;-73
2022/09/28 09:45:37;;;;;;;4.07;1.02;;;;;;;13.35;85.94;99879.28;5031774;28;20075;-73
2022/09/28 09:48:14;;;;;;;3.13;1.13;;;;;;;13.16;86.35;99877.69;5045103;28;20029;-73
2022/09/28 09:50:48;;;;;;;3.20;0.77;;;;;;;13.09;86.73;99880.56;5025503;28;20552;-73
2022/09/28 09:53:13;;;;;;;3.60;0.90;;;;;;;13.24;87.61;99882.84;5047887;28;20033;-73
2022/09/28 09:55:49;;;;;;;3.47;0.83;;;;;;;13.59;85.45;99887.28;5044703;28;20029;-74
2022/09/28 09:58:25;;;;;;;5.05;0.80;;;;;;;13.68;84.13;99885.00;5043771;28;20476;-73
2022/09/28 10:00:54;;;;;;;8.00;1.00;;;;;;;13.66;86.21;99890.75;5026781;28;20384;-73
2022/09/28 10:03:26;;;;;;;4.18;1.00;;;;;;;13.48;84.01;99887.28;5045014;28;20033;-73
2022/09/28 10:05:59;;;;;;;6.25;1.10;;;;;;;13.68;85.04;99894.09;5045408;28;20025;-73
2022/09/28 10:08:27;;;;;;;4.10;1.00;;;;;;;14.00;82.65;99889.03;5027546;28;20021;-73
2022/09/28 10:11:04;;;;;;;4.65;1.30;;;;;;;13.92;82.37;99895.75;5027192;28;20062;-73
2022/09/28 10:13:31;;;;;;;;;;;;;;;14.41;82.01;99894.34;5049825;28;20032;-73
2022/09/28 10:15:57;;;;;;;7.40;1.67;;;;;;;14.36;79.94;99897.00;5045923;28;19916;-73
2022/09/28 10:18:23;;;;;;;4.70;1.20;;;;;;;14.18;81.29;99905.38;5049146;28;20036;-73
2022/09/28 10:20:48;;;;;;;3.67;0.93;;;;;;;13.91;81.69;99887.72;5041523;28;20025;-73
2022/09/28 10:23:22;;;;;;;6.83;1.20;;;;;;;13.91;81.39;99899.56;5047544;28;20039;-73
2022/09/28 10:25:51;;;;;;;3.60;1.25;;;;;;;14.07;82.29;99893.31;5046119;28;20391;-73
2022/09/28 10:28:24;;;;;;;3.78;1.00;;;;;;;14.04;78.72;99892.97;5046708;28;20032;-72
2022/09/28 10:30:50;;;;;;;2.20;0.95;;;;;;;14.03;78.92;99896.81;5047615;28;20486;-73
2022/09/28 10:33:30;;;;;;;2.93;1.47;;;;;;;14.12;80.17;99895.34;5044580;28;20021;-73
2022/09/28 10:35:58;;;;;;;4.13;1.00;;;;;;;14.37;79.98;99890.38;5040999;28;20075;-73
2022/09/28 10:38:25;;;;;;;3.22;1.23;;;;;;;14.75;79.42;99883.16;5045244;28;20489;-72
2022/09/28 10:40:57;;;;;;;7.45;1.50;;;;;;;14.71;77.77;99889.41;5046399;28;20025;-72
2022/09/28 10:43:32;;;;;;;3.45;1.25;;;;;;;14.91;79.43;99887.88;5040116;28;20041;-72
2022/09/28 10:46:09;;;;;;;3.53;1.30;;;;;;;15.07;75.50;99889.81;5045614;28;20162;-72
2022/09/28 10:48:57;;;;;;;8.45;1.25;;;;;;;15.42;77.48;99878.56;5045086;28;20035;-72
2022/09/28 10:51:45;;;;;;;4.05;1.60;;;;;;;15.49;74.91;99884.72;5027897;28;20440;-73
2022/09/28 10:54:21;;;;;;;4.20;1.00;;;;;;;15.80;75.14;99884.91;5048191;28;20052;-73
2022/09/28 10:56:47;;;;;;;5.28;0.85;;;;;;;15.50;75.42;99883.63;5042671;28;20029;-73
2022/09/28 10:59:28;;;;;;;6.05;1.20;;;;;;;15.45;75.14;99883.53;5046103;28;20488;-73
2022/09/28 11:02:20;;;;;;;6.65;0.77;;;;;;;15.62;72.85;99878.84;5045548;28;20044;-73
2022/09/28 11:04:52;;;;;;;1.30;0.80;;;;;;;15.91;72.09;99880.38;5048213;28;20380;-73
2022/09/28 11:07:23;;;;;;;3.70;1.10;;;;;;;16.21;71.34;99872.47;5020202;28;20033;-73
2022/09/28 11:09:49;;;;;;;7.72;0.88;;;;;;;16.67;69.96;99883.88;5042522;28;20420;-73
2022/09/28 11:12:21;;;;;;;2.38;1.30;;;;;;;16.66;68.69;99871.09;5028205;28;20504;-73
2022/09/28 11:14:52;;;;;;;1.40;0.60;;;;;;;16.56;66.47;99879.31;5020057;28;20025;-72
2022/09/28 11:17:29;;;;;;;2.20;0.70;;;;;;;16.62;67.76;99878.28;5047019;28;20084;-72
2022/09/28 11:19:57;;;;;;;3.88;0.70;;;;;;;16.91;67.90;99878.84;5046831;28;20040;-73
2022/09/28 11:22:31;;;;;;;2.72;0.70;;;;;;;16.80;65.77;99880.66;5040717;28;20029;-72
2022/09/28 11:25:15;;;;;;;3.17;0.90;;;;;;;16.55;66.29;99879.56;5048203;28;20064;-72
2022/09/28 11:27:42;;;;;;;1.73;0.68;;;;;;;16.90;66.70;99878.00;5038861;28;20033;-72
2022/09/28 11:30:20;;;;;;;;;;;;;;;16.61;65.80;99873.00;5048005;28;20480;-72
2022/09/28 11:32:46;;;;;;;5.25;0.98;;;;;;;16.81;67.37;99870.44;5046224;28;20196;-72
2022/09/28 11:35:22;;;;;;;0.83;0.83;;;;;;;16.88;68.55;99882.13;5046699;28;20106;-72
2022/09/28 11:38:10;;;;;;;2.58;0.75;;;;;;;17.07;66.18;99875.94;5043922;28;20079;-72
2022/09/28 11:41:13;;;;;;;0.77;0.63;;;;;;;17.05;66.11;99882.84;5034282;28;20140;-72
2022/09/28 11:44:15;;;;;;;2.33;0.50;;;;;;;17.14;67.82;99876.56;5021848;28;20041;-72
2022/09/28 11:47:12;;;;;;;1.15;0.50;;;;;;;16.28;69.13;99876.72;5039247;28;20727;-72
2022/09/28 11:49:51;;;;;;;2.50;0.63;;;;;;;16.65;67.15;99876.91;5040981;28;20120;-73
2022/09/28 11:52:33;;;;;;;2.55;0.50;;;;;;;16.98;66.52;99883.03;5042434;28;20036;-72
2022/09/28 11:55:11;;;;;;;0.98;0.50;;;;;;;16.72;64.18;99883.91;5026884;28;20044;-72
2022/09/28 11:57:40;;;;;;;1.65;0.40;;;;;;;16.71;62.56;99886.94;5036512;28;20099;-72
2022/09/28 12:00:13;;;;;;;0.60;0.40;;;;;;;16.40;64.38;99888.53;5041877;28;20115;-72